Aérodrome :
LOGIN :

S'inscrire | Disclaimer

   EN    FR    IT 

 










Légende :    VFR   VFR Marginal   IFR   IFR Intensif   IFR Très Intensif
Visi : 
Plafond : 
>= 8 km
>= 3000ft
5 à 8 km
1000 à 3000 ft
1500m à 5 km
500 à 1000 ft
800 à 1500m
200 à 500 ft
< 800m
< 200 ft
Symboles :   Orages  Brouillard  Fortes neiges  Fortes précipitations  Vent > 20 kt
SIGMETs :   Divers  Orages  Givrage  Turbulence  Onde Orograph.  Cendres Volcan.






- Altitude de l'aérodrome : 423 ft
- Code IATA : PIS


LFBI - Poitiers

DERNIER METAR :
  • 291530Z AUTO 05013KT 020V110 CAVOK 26/05 Q1018 TEMPO 06015G25KT

METARs EXPIRÉS :
  • 291500Z AUTO 07014KT 040V100 CAVOK 25/03 Q1018 TEMPO 06015G25KT
  • 291430Z AUTO 05014KT 360V080 CAVOK 26/05 Q1018 TEMPO 06015G25KT
  • 291400Z AUTO 08010KT 030V120 CAVOK 26/05 Q1019 TEMPO 06015G25KT
  • 291330Z AUTO 08011G22KT 030V120 CAVOK 25/04 Q1019 NOSIG
  • 291300Z AUTO 05013KT 020V080 CAVOK 25/08 Q1019 TEMPO 06015G25KT

TAF TAF LFBI
Valide du 29 à 12h jusqu'au 30 à 12h UTC


291100Z 2912/3012 06010KT CAVOK
TEMPO 2912/2918 06015G25KT



MET'MAP, la Météo Aéronautique d'un coup d'oeil ! - Copyright ORBIFLY Décembre 2007 - Disclaimer

ORBIFLY MET'MAP TEAM :

Programmation & Développement : Alexandra Zaïnal
Sur une idée originale de : Baudouin d'Aumeries
Assistance à la programmation : Marc-Olivier Méhu
Soutien technique & logistique : Manuel Goepfert

Contact : metmap@orbifly.com




SOURCES & CREDITS :

   NOAA